Time;durP1;ratioP1;P1;durP2;ratioP2;P2;SDS_P1;SDS_P2;PMS_P1;PMS_P2;Temp;Humidity;BMP_temperature;BMP_pressure;BME280_temperature;BME280_humidity;BME280_pressure;Samples;Min_cycle;Max_cycle;Signal;HPM_P1;HPM_P2
2022/06/02 00:02:20;;;;;;;13.82;7.88;;;;;;;;;;5016925;28;20089;-71
2022/06/02 00:05:05;;;;;;;20.80;8.45;;;;;;;;;;5023323;28;20041;-71
2022/06/02 00:07:32;;;;;;;16.70;10.63;;;;;;;;;;5018335;28;20391;-72
2022/06/02 00:09:58;;;;;;;37.80;24.00;;;;;;;;;;5020879;28;20531;-72
2022/06/02 00:12:47;;;;;;;23.75;20.88;;;;;;;;;;5024168;28;20071;-72
2022/06/02 00:15:26;;;;;;;13.50;11.23;;;;;;;;;;5017918;28;20046;-71
2022/06/02 00:17:52;;;;;;;12.77;7.47;;;;;;;;;;5016468;28;20479;-72
2022/06/02 00:20:27;;;;;;;12.98;8.38;;;;;;;;;;5024342;28;20033;-71
2022/06/02 00:22:59;;;;;;;10.73;6.22;;;;;;;;;;5015838;28;20033;-72
2022/06/02 00:25:26;;;;;;;;;;;;;;;;;;5020796;28;20059;-72
2022/06/02 00:27:52;;;;;;;9.98;6.90;;;;;;;;;;5026250;28;20824;-72
2022/06/02 00:30:21;;;;;;;14.90;6.45;;;;;;;;;;5018893;28;20132;-72
2022/06/02 00:32:59;;;;;;;13.68;6.82;;;;;;;;;;5025004;28;20568;-71
2022/06/02 00:35:29;;;;;;;12.02;7.20;;;;;;;;;;5019113;28;20053;-72
2022/06/02 00:37:57;;;;;;;16.58;7.00;;;;;;;;;;5018236;28;20040;-72
2022/06/02 00:40:25;;;;;;;14.25;12.20;;;;;;;;;;5027244;28;20040;-72
2022/06/02 00:43:00;;;;;;;9.80;5.35;;;;;;;;;;5022265;28;20029;-71
2022/06/02 00:45:26;;;;;;;7.55;3.05;;;;;;;;;;5021898;28;20060;-72
2022/06/02 00:47:55;;;;;;;5.53;2.90;;;;;;;;;;5022975;28;20025;-71
2022/06/02 00:50:40;;;;;;;7.57;2.40;;;;;;;;;;5024903;28;20383;-72
2022/06/02 00:53:25;;;;;;;9.50;3.88;;;;;;;;;;5021885;28;20143;-73
2022/06/02 00:59:12;;;;;;;6.05;2.25;;;;;;;;;;5026314;28;20088;-72
2022/06/02 01:01:38;;;;;;;6.13;2.95;;;;;;;;;;5021613;28;20121;-72
2022/06/02 01:04:16;;;;;;;11.65;4.20;;;;;;;;;;5022709;28;20033;-72
2022/06/02 01:06:44;;;;;;;8.93;3.90;;;;;;;;;;5022641;28;20057;-72
2022/06/02 01:09:32;;;;;;;11.60;3.25;;;;;;;;;;5021758;28;20080;-72
2022/06/02 01:12:18;;;;;;;8.18;2.90;;;;;;;;;;5019374;28;20040;-72
2022/06/02 01:14:53;;;;;;;8.40;2.50;;;;;;;;;;5019769;28;20120;-72
2022/06/02 01:17:26;;;;;;;7.47;2.78;;;;;;;;;;5021998;28;20037;-72
2022/06/02 01:20:03;;;;;;;7.63;2.38;;;;;;;;;;5014128;28;20026;-72
2022/06/02 01:22:29;;;;;;;8.98;2.55;;;;;;;;;;5021507;28;20058;-71
2022/06/02 01:25:24;;;;;;;6.68;2.03;;;;;;;;;;5023457;28;20844;-72
2022/06/02 01:27:56;;;;;;;6.07;2.05;;;;;;;;;;5020229;28;20053;-71
2022/06/02 01:30:22;;;;;;;11.98;3.17;;;;;;;;;;5023705;28;20435;-72
2022/06/02 01:32:55;;;;;;;7.20;3.15;;;;;;;;;;5021682;28;20029;-71
2022/06/02 01:35:21;;;;;;;11.07;3.20;;;;;;;;;;5022737;28;20033;-72
2022/06/02 01:37:59;;;;;;;8.52;2.97;;;;;;;;;;5026714;28;20033;-72
2022/06/02 01:40:35;;;;;;;5.85;3.10;;;;;;;;;;5024443;28;20035;-72
2022/06/02 01:43:08;;;;;;;11.60;2.97;;;;;;;;;;5023310;28;20187;-72
2022/06/02 01:45:53;;;;;;;11.30;2.83;;;;;;;;;;5027663;28;20040;-72
2022/06/02 01:48:22;;;;;;;7.38;2.60;;;;;;;;;;5015673;28;20038;-72
2022/06/02 01:50:59;;;;;;;9.95;3.38;;;;;;;;;;5021244;28;20471;-72
2022/06/02 01:53:25;;;;;;;8.70;3.88;;;;;;;;;;5018333;28;20053;-72
2022/06/02 01:55:54;;;;;;;4.93;2.53;;;;;;;;;;5018711;28;20034;-72
2022/06/02 01:58:31;;;;;;;5.88;2.58;;;;;;;;;;5021585;28;20099;-72
2022/06/02 02:01:05;;;;;;;9.77;2.80;;;;;;;;;;5019428;28;20502;-72
2022/06/02 02:03:44;;;;;;;7.72;2.58;;;;;;;;;;5020481;28;20426;-71
2022/06/02 02:06:28;;;;;;;4.47;1.75;;;;;;;;;;5016534;28;20513;-72
2022/06/02 02:09:12;;;;;;;6.25;1.88;;;;;;;;;;5022577;28;20044;-72
2022/06/02 02:11:45;;;;;;;9.85;2.58;;;;;;;;;;5021173;28;20505;-71
2022/06/02 02:14:14;;;;;;;6.80;2.90;;;;;;;;;;5020504;28;20030;-72
2022/06/02 02:16:59;;;;;;;4.38;1.70;;;;;;;;;;5016710;28;20035;-71
2022/06/02 02:19:31;;;;;;;6.20;2.63;;;;;;;;;;5022842;28;20044;-72
2022/06/02 02:21:57;;;;;;;;;;;;;;;;;;5015556;28;20083;-72
2022/06/02 02:24:41;;;;;;;10.18;3.38;;;;;;;;;;5017988;28;19917;-71
2022/06/02 02:27:17;;;;;;;8.95;2.75;;;;;;;;;;5027076;28;20029;-72
2022/06/02 02:29:44;;;;;;;8.48;3.15;;;;;;;;;;5021403;28;20053;-72
2022/06/02 02:32:10;;;;;;;9.88;2.45;;;;;;;;;;5015871;28;20085;-72
2022/06/02 02:34:49;;;;;;;12.38;2.65;;;;;;;;;;5023180;28;20060;-72
2022/06/02 02:37:15;;;;;;;10.48;3.50;;;;;;;;;;5019812;28;21064;-72
2022/06/02 02:39:47;;;;;;;6.22;3.20;;;;;;;;;;5020419;28;20041;-72
2022/06/02 02:42:13;;;;;;;9.68;2.88;;;;;;;;;;5024102;28;20056;-71
2022/06/02 02:44:43;;;;;;;11.27;3.70;;;;;;;;;;5025954;28;20474;-72
2022/06/02 02:47:18;;;;;;;8.88;3.40;;;;;;;;;;5021907;28;20034;-72
2022/06/02 02:49:48;;;;;;;7.32;3.53;;;;;;;;;;5021874;28;20421;-72
2022/06/02 02:52:14;;;;;;;6.68;3.00;;;;;;;;;;5025051;28;20394;-72
2022/06/02 02:55:03;;;;;;;7.90;3.00;;;;;;;;;;5022363;28;20038;-72
2022/06/02 02:57:44;;;;;;;12.63;3.58;;;;;;;;;;5020817;28;20034;-71
2022/06/02 03:00:16;;;;;;;7.10;3.45;;;;;;;;;;5021703;28;20353;-71
2022/06/02 03:03:01;;;;;;;7.65;3.25;;;;;;;;;;5025797;28;20116;-72
2022/06/02 03:05:28;;;;;;;9.82;3.28;;;;;;;;;;5019211;28;20083;-72
2022/06/02 03:08:00;;;;;;;12.18;3.15;;;;;;;;;;5015963;28;20038;-71
2022/06/02 03:10:31;;;;;;;8.40;3.05;;;;;;;;;;5011682;28;20031;-71
2022/06/02 03:13:29;;;;;;;8.13;3.33;;;;;;;;;;5026506;28;20033;-71
2022/06/02 03:15:59;;;;;;;6.82;3.50;;;;;;;;;;5020057;28;20041;-72
2022/06/02 03:18:38;;;;;;;10.90;4.25;;;;;;;;;;5022727;28;20060;-71
2022/06/02 03:21:19;;;;;;;11.05;5.85;;;;;;;;;;5016363;28;20429;-72
2022/06/02 03:23:54;;;;;;;10.73;6.63;;;;;;;;;;5025018;28;20037;-71
2022/06/02 03:26:26;;;;;;;18.70;8.30;;;;;;;;;;5023775;28;20044;-71
2022/06/02 03:29:07;;;;;;;12.85;8.15;;;;;;;;;;5020184;28;20052;-72
2022/06/02 03:31:39;;;;;;;13.52;8.52;;;;;;;;;;5019529;28;20098;-72
2022/06/02 03:34:25;;;;;;;22.45;9.50;;;;;;;;;;5019935;28;20804;-71
2022/06/02 03:37:10;;;;;;;19.42;10.77;;;;;;;;;;5021292;28;20041;-72
2022/06/02 03:39:36;;;;;;;13.40;9.23;;;;;;;;;;5019567;28;20040;-71
2022/06/02 03:42:14;;;;;;;15.68;10.95;;;;;;;;;;5022824;28;20398;-71
2022/06/02 03:44:59;;;;;;;16.13;12.82;;;;;;;;;;5014779;28;20041;-71
2022/06/02 03:47:28;;;;;;;17.40;10.85;;;;;;;;;;5018826;28;20055;-72
2022/06/02 03:50:01;;;;;;;18.83;11.85;;;;;;;;;;5025051;28;20223;-72
2022/06/02 03:52:37;;;;;;;19.60;12.93;;;;;;;;;;5011573;28;20091;-71
2022/06/02 03:55:06;;;;;;;18.20;12.15;;;;;;;;;;5021639;28;20082;-71
2022/06/02 03:57:51;;;;;;;16.33;10.82;;;;;;;;;;5018363;28;20041;-72
2022/06/02 04:00:19;;;;;;;13.27;8.40;;;;;;;;;;5022040;28;20495;-71
2022/06/02 04:02:47;;;;;;;14.07;8.77;;;;;;;;;;5014235;28;20026;-72
2022/06/02 04:05:40;;;;;;;12.35;8.40;;;;;;;;;;5019810;28;20049;-72
2022/06/02 04:08:08;;;;;;;12.60;8.95;;;;;;;;;;5021545;28;20697;-72
2022/06/02 04:10:37;;;;;;;17.70;12.20;;;;;;;;;;5018453;28;20037;-71
2022/06/02 04:16:00;;;;;;;30.05;19.80;;;;;;;;;;5017924;28;20100;-72
2022/06/02 04:18:33;;;;;;;20.95;18.65;;;;;;;;;;5020339;28;20033;-72
2022/06/02 04:21:05;;;;;;;20.60;15.75;;;;;;;;;;5018128;28;20131;-72
2022/06/02 04:23:59;;;;;;;18.20;14.55;;;;;;;;;;5015042;28;20112;-72
2022/06/02 04:26:48;;;;;;;18.25;14.52;;;;;;;;;;5017169;28;20452;-72
2022/06/02 04:29:20;;;;;;;24.02;12.57;;;;;;;;;;5013720;28;20049;-71
2022/06/02 04:31:48;;;;;;;9.70;4.82;;;;;;;;;;5016190;28;20045;-71
2022/06/02 04:34:20;;;;;;;10.93;4.70;;;;;;;;;;5020765;28;20040;-71
2022/06/02 04:36:46;;;;;;;;;;;;;;;;;;5018349;28;20116;-72
2022/06/02 04:39:16;;;;;;;17.50;11.90;;;;;;;;;;5017340;28;20008;-71
2022/06/02 04:42:04;;;;;;;13.23;7.40;;;;;;;;;;5012408;28;20518;-72
2022/06/02 04:44:34;;;;;;;10.40;2.95;;;;;;;;;;5015251;28;20030;-72
2022/06/02 04:47:00;;;;;;;4.78;2.50;;;;;;;;;;5017951;28;20030;-72
2022/06/02 04:49:41;;;;;;;5.03;1.67;;;;;;;;;;5019631;28;20037;-71
2022/06/02 04:52:26;;;;;;;6.38;1.92;;;;;;;;;;5015985;28;20068;-72
2022/06/02 04:54:52;;;;;;;10.73;2.42;;;;;;;;;;5019157;28;20044;-72
2022/06/02 04:57:18;;;;;;;6.35;1.67;;;;;;;;;;5017896;28;20030;-72
2022/06/02 04:59:52;;;;;;;6.75;1.70;;;;;;;;;;5019524;28;20038;-72
2022/06/02 05:02:41;;;;;;;6.38;1.30;;;;;;;;;;5019692;28;20475;-72
2022/06/02 05:05:30;;;;;;;4.32;1.30;;;;;;;;;;5016197;28;20500;-71
2022/06/02 05:08:07;;;;;;;5.28;1.88;;;;;;;;;;5017199;28;20506;-72
2022/06/02 05:10:39;;;;;;;7.40;3.35;;;;;;;;;;5024819;28;20038;-72
2022/06/02 05:13:05;;;;;;;;;;;;;;;;;;5020227;28;20030;-71
2022/06/02 05:15:31;;;;;;;5.70;1.35;;;;;;;;;;5022452;28;19963;-72
2022/06/02 05:18:03;;;;;;;4.90;1.20;;;;;;;;;;5020328;28;20375;-72
2022/06/02 05:20:29;;;;;;;;;;;;;;;;;;5018338;28;20026;-73
2022/06/02 05:23:13;;;;;;;5.60;1.50;;;;;;;;;;5017372;28;19924;-72
2022/06/02 05:26:04;;;;;;;14.43;2.17;;;;;;;;;;5022235;28;20072;-72
2022/06/02 05:28:45;;;;;;;5.75;1.88;;;;;;;;;;5023152;28;20057;-71
2022/06/02 05:31:24;;;;;;;6.80;1.67;;;;;;;;;;5024892;28;20034;-72
2022/06/02 05:34:03;;;;;;;3.75;1.60;;;;;;;;;;5021354;28;20503;-72
2022/06/02 05:36:31;;;;;;;4.55;1.45;;;;;;;;;;5027269;28;20032;-72
2022/06/02 05:39:06;;;;;;;2.28;0.90;;;;;;;;;;5023532;28;20044;-72
2022/06/02 05:42:05;;;;;;;7.75;1.80;;;;;;;;;;5027576;28;20451;-72
2022/06/02 05:44:56;;;;;;;2.97;1.00;;;;;;;;;;5019912;28;20057;-71
2022/06/02 05:47:44;;;;;;;4.55;1.50;;;;;;;;;;5031125;28;20120;-72
2022/06/02 05:50:16;;;;;;;8.52;2.88;;;;;;;;;;5023336;28;20481;-72
2022/06/02 05:52:53;;;;;;;6.05;2.92;;;;;;;;;;5025142;28;20045;-72
2022/06/02 05:55:25;;;;;;;6.03;1.75;;;;;;;;;;5023251;28;20033;-72
2022/06/02 05:58:10;;;;;;;7.25;2.20;;;;;;;;;;5020077;28;20048;-71
2022/06/02 06:00:55;;;;;;;12.25;1.20;;;;;;;;;;5019033;28;20033;-72
2022/06/02 06:03:32;;;;;;;2.13;0.75;;;;;;;;;;5021035;28;20787;-71
2022/06/02 06:06:18;;;;;;;2.75;0.80;;;;;;;;;;5016293;28;20025;-72
2022/06/02 06:08:47;;;;;;;7.43;1.95;;;;;;;;;;5022983;28;20542;-72
2022/06/02 06:11:13;;;;;;;7.70;1.52;;;;;;;;;;5013712;28;20045;-72
2022/06/02 06:13:45;;;;;;;2.03;0.88;;;;;;;;;;5023039;28;20034;-71
2022/06/02 06:16:11;;;;;;;;;;;;;;;;;;5021372;28;20389;-72
2022/06/02 06:19:16;;;;;;;6.18;1.10;;;;;;;;;;5017613;28;19917;-72
2022/06/02 06:21:48;;;;;;;7.40;1.52;;;;;;;;;;5023580;28;20029;-72
2022/06/02 06:24:14;;;;;;;;;;;;;;;;;;5024848;28;20699;-72
2022/06/02 06:26:58;;;;;;;4.57;1.70;;;;;;;;;;5022868;28;19956;-72
2022/06/02 06:29:25;;;;;;;6.85;1.67;;;;;;;;;;5019119;28;20050;-72
2022/06/02 06:32:09;;;;;;;10.13;1.77;;;;;;;;;;5021574;28;20029;-72
2022/06/02 06:34:54;;;;;;;10.10;1.65;;;;;;;;;;5019597;28;20061;-72
2022/06/02 06:37:35;;;;;;;7.10;1.10;;;;;;;;;;5014374;28;20038;-71
2022/06/02 06:40:11;;;;;;;4.00;0.70;;;;;;;;;;5021355;28;20755;-72
2022/06/02 06:42:36;;;;;;;5.13;1.08;;;;;;;;;;5021260;28;20570;-72
2022/06/02 06:45:11;;;;;;;5.38;0.98;;;;;;;;;;5018826;28;20522;-72
2022/06/02 06:47:39;;;;;;;4.40;0.90;;;;;;;;;;5017165;28;20033;-72
2022/06/02 06:50:11;;;;;;;5.00;1.02;;;;;;;;;;5018406;28;20038;-72
2022/06/02 06:52:46;;;;;;;5.25;1.15;;;;;;;;;;5014198;28;20041;-72
2022/06/02 06:55:21;;;;;;;7.32;1.00;;;;;;;;;;5019374;28;20037;-72
2022/06/02 06:58:02;;;;;;;3.95;0.80;;;;;;;;;;5015591;28;20026;-72
2022/06/02 07:00:28;;;;;;;2.33;0.50;;;;;;;;;;5016638;28;20022;-72
2022/06/02 07:03:13;;;;;;;3.78;1.25;;;;;;;;;;5019258;28;20036;-71
2022/06/02 07:05:42;;;;;;;3.95;0.60;;;;;;;;;;5017654;28;20040;-72
2022/06/02 07:08:11;;;;;;;2.72;0.60;;;;;;;;;;5020158;28;20049;-72
2022/06/02 07:10:43;;;;;;;2.10;0.80;;;;;;;;;;5017411;28;20025;-72
2022/06/02 07:13:09;;;;;;;;;;;;;;;;;;5015900;28;20032;-72
2022/06/02 07:15:45;;;;;;;1.13;0.50;;;;;;;;;;5016512;28;19913;-71
2022/06/02 07:18:17;;;;;;;3.75;1.15;;;;;;;;;;5013523;28;20382;-72
2022/06/02 07:20:43;;;;;;;;;;;;;;;;;;5017510;28;20355;-72
2022/06/02 07:23:16;;;;;;;4.15;0.90;;;;;;;;;;5019833;28;19952;-72
2022/06/02 07:25:53;;;;;;;3.25;1.05;;;;;;;;;;5018319;28;20033;-72
2022/06/02 07:28:22;;;;;;;4.85;1.00;;;;;;;;;;5017880;28;20042;-72
2022/06/02 07:31:07;;;;;;;5.85;1.20;;;;;;;;;;5019286;28;20041;-72
2022/06/02 07:33:33;;;;;;;3.75;0.95;;;;;;;;;;5014885;28;20076;-72
2022/06/02 07:36:05;;;;;;;5.03;0.90;;;;;;;;;;5018055;28;20140;-72
2022/06/02 07:38:31;;;;;;;;;;;;;;;;;;5019505;28;20042;-72
2022/06/02 07:41:07;;;;;;;3.67;0.60;;;;;;;;;;5020013;28;20575;-72
2022/06/02 07:43:52;;;;;;;2.53;0.70;;;;;;;;;;5013539;28;20030;-72
2022/06/02 07:46:36;;;;;;;5.57;0.95;;;;;;;;;;5013431;28;20040;-72
2022/06/02 07:49:18;;;;;;;2.88;0.70;;;;;;;;;;5018111;28;20038;-72
2022/06/02 07:51:50;;;;;;;3.88;0.70;;;;;;;;;;5021984;28;22079;-72
2022/06/02 07:54:25;;;;;;;2.63;0.85;;;;;;;;;;5014900;28;20915;-72
2022/06/02 07:56:51;;;;;;;3.45;0.70;;;;;;;;;;5016424;28;20026;-72
2022/06/02 07:59:30;;;;;;;6.57;1.10;;;;;;;;;;5019448;28;20029;-72
2022/06/02 08:01:59;;;;;;;9.68;1.30;;;;;;;;;;5021846;28;20033;-72
2022/06/02 08:04:25;;;;;;;4.40;1.35;;;;;;;;;;5017224;28;20042;-72
2022/06/02 08:06:57;;;;;;;5.78;1.40;;;;;;;;;;5020100;28;20084;-72
2022/06/02 08:09:23;;;;;;;;;;;;;;;;;;5021400;28;20547;-72
2022/06/02 08:11:54;;;;;;;2.67;0.95;;;;;;;;;;5017788;28;19959;-72
2022/06/02 08:14:22;;;;;;;3.27;0.80;;;;;;;;;;5018612;28;20374;-72
2022/06/02 08:16:59;;;;;;;4.93;0.90;;;;;;;;;;5020852;28;20566;-72
2022/06/02 08:19:41;;;;;;;6.10;1.02;;;;;;;;;;5015411;28;20373;-72
2022/06/02 08:22:09;;;;;;;2.53;0.70;;;;;;;;;;5019261;28;20057;-72
2022/06/02 08:24:47;;;;;;;3.30;0.77;;;;;;;;;;5015684;28;20038;-72
2022/06/02 08:27:13;;;;;;;4.07;0.70;;;;;;;;;;5016759;28;20518;-72
2022/06/02 08:29:45;;;;;;;2.72;0.85;;;;;;;;;;5020504;28;20685;-72
2022/06/02 08:32:41;;;;;;;4.68;1.00;;;;;;;;;;5020348;28;20749;-72
2022/06/02 08:35:22;;;;;;;3.58;0.70;;;;;;;;;;5013014;28;20072;-72
2022/06/02 08:37:48;;;;;;;4.13;0.90;;;;;;;;;;5018995;28;20073;-73
2022/06/02 08:40:14;;;;;;;4.25;0.80;;;;;;;;;;5022415;28;20025;-72
2022/06/02 08:43:10;;;;;;;4.07;0.68;;;;;;;;;;5023005;28;20069;-73
2022/06/02 08:46:08;;;;;;;4.90;1.40;;;;;;;;;;5020933;28;20036;-72
2022/06/02 08:48:53;;;;;;;5.78;1.10;;;;;;;;;;5002782;28;20045;-72
2022/06/02 08:51:37;;;;;;;6.60;1.45;;;;;;;;;;5023620;28;20033;-72
2022/06/02 08:54:18;;;;;;;3.33;1.20;;;;;;;;;;5020559;28;20091;-72
2022/06/02 08:56:56;;;;;;;4.83;1.57;;;;;;;;;;5019383;28;20033;-72
2022/06/02 08:59:21;;;;;;;5.82;1.55;;;;;;;;;;5022125;28;20032;-72
2022/06/02 09:02:06;;;;;;;6.13;2.08;;;;;;;;;;5022201;28;20490;-72
2022/06/02 09:05:04;;;;;;;6.25;1.50;;;;;;;;;;5016515;28;20038;-72
2022/06/02 09:07:33;;;;;;;4.97;1.70;;;;;;;;;;5021377;28;20053;-72
2022/06/02 09:10:14;;;;;;;6.28;2.35;;;;;;;;;;5021411;28;20544;-72
2022/06/02 09:12:59;;;;;;;8.60;2.80;;;;;;;;;;5018348;28;20513;-72
2022/06/02 09:15:28;;;;;;;9.63;2.35;;;;;;;;;;5022776;28;20037;-72
2022/06/02 09:17:57;;;;;;;5.32;1.73;;;;;;;;;;5021793;28;20033;-72
2022/06/02 09:20:32;;;;;;;5.88;2.05;;;;;;;;;;5021030;28;20025;-72
2022/06/02 09:23:01;;;;;;;8.23;2.10;;;;;;;;;;5019886;28;20041;-72
2022/06/02 09:25:42;;;;;;;6.70;2.45;;;;;;;;;;5019061;28;20746;-72
2022/06/02 09:28:26;;;;;;;6.05;2.22;;;;;;;;;;5026811;28;20044;-72
2022/06/02 09:30:52;;;;;;;4.32;2.40;;;;;;;;;;5018836;28;20029;-72
2022/06/02 09:33:33;;;;;;;6.25;2.70;;;;;;;;;;5014724;28;20045;-72
2022/06/02 09:36:15;;;;;;;9.63;2.50;;;;;;;;;;5017842;28;20021;-72
2022/06/02 09:38:41;;;;;;;4.38;1.80;;;;;;;;;;5015920;28;20939;-72
2022/06/02 09:41:25;;;;;;;5.78;1.90;;;;;;;;;;5016285;28;20046;-72
2022/06/02 09:44:00;;;;;;;3.92;1.55;;;;;;;;;;5019531;28;20053;-72
2022/06/02 09:46:29;;;;;;;6.03;1.83;;;;;;;;;;5017046;28;20067;-72
2022/06/02 09:49:04;;;;;;;8.18;1.92;;;;;;;;;;5016993;28;20041;-72
2022/06/02 09:51:31;;;;;;;7.22;1.83;;;;;;;;;;5017325;28;20042;-72
2022/06/02 09:54:03;;;;;;;11.52;2.10;;;;;;;;;;5021912;28;20574;-72
2022/06/02 09:56:51;;;;;;;12.43;1.92;;;;;;;;;;5016781;28;20116;-72
2022/06/02 09:59:29;;;;;;;4.22;1.55;;;;;;;;;;5021150;28;20030;-72
2022/06/02 10:02:13;;;;;;;3.92;1.50;;;;;;;;;;5019050;28;20052;-72
2022/06/02 10:04:58;;;;;;;7.72;1.75;;;;;;;;;;5022133;28;20051;-72
2022/06/02 10:07:33;;;;;;;6.07;1.80;;;;;;;;;;5015013;28;20076;-71
2022/06/02 10:10:17;;;;;;;7.50;1.45;;;;;;;;;;5023266;28;20065;-72
2022/06/02 10:12:55;;;;;;;5.43;1.55;;;;;;;;;;5019794;28;20121;-72
2022/06/02 10:15:40;;;;;;;5.55;1.65;;;;;;;;;;5017683;28;20152;-71
2022/06/02 10:18:18;;;;;;;4.63;1.65;;;;;;;;;;5022755;28;20752;-72
2022/06/02 10:20:54;;;;;;;4.32;1.70;;;;;;;;;;5022334;28;20124;-72
2022/06/02 10:23:28;;;;;;;5.95;1.50;;;;;;;;;;5020580;28;20383;-72
2022/06/02 10:26:01;;;;;;;8.95;1.80;;;;;;;;;;5019393;28;20478;-72
2022/06/02 10:28:46;;;;;;;8.05;1.73;;;;;;;;;;5023780;28;20057;-72
2022/06/02 10:31:12;;;;;;;5.75;1.27;;;;;;;;;;5025015;28;20383;-72
2022/06/02 10:33:44;;;;;;;10.57;1.65;;;;;;;;;;5019661;28;20033;-71
2022/06/02 10:36:29;;;;;;;4.13;1.40;;;;;;;;;;5021236;28;20039;-72
2022/06/02 10:39:02;;;;;;;3.03;1.20;;;;;;;;;;5020212;28;20370;-72
2022/06/02 10:41:46;;;;;;;4.90;1.20;;;;;;;;;;5010711;28;20030;-72
2022/06/02 10:44:12;;;;;;;6.60;2.13;;;;;;;;;;5017483;28;20053;-72
2022/06/02 10:46:39;;;;;;;4.85;1.45;;;;;;;;;;5022010;28;20033;-72
2022/06/02 10:49:25;;;;;;;7.38;1.52;;;;;;;;;;5017823;28;20041;-72
2022/06/02 10:52:10;;;;;;;5.22;2.03;;;;;;;;;;5016872;28;20075;-72
2022/06/02 10:54:55;;;;;;;5.57;1.70;;;;;;;;;;5022712;28;20137;-72
2022/06/02 10:57:39;;;;;;;4.38;1.77;;;;;;;;;;5018405;28;20034;-72
2022/06/02 11:00:17;;;;;;;5.55;1.65;;;;;;;;;;5020353;28;20033;-72
2022/06/02 11:02:46;;;;;;;6.85;2.40;;;;;;;;;;5019895;28;20026;-72
2022/06/02 11:05:15;;;;;;;5.18;1.98;;;;;;;;;;5018481;28;20068;-72
2022/06/02 11:08:00;;;;;;;7.10;1.73;;;;;;;;;;5017357;28;20029;-72
2022/06/02 11:10:26;;;;;;;2.70;0.93;;;;;;;;;;5016852;28;20045;-72
2022/06/02 11:13:07;;;;;;;4.70;1.20;;;;;;;;;;5012712;28;20025;-72
2022/06/02 11:15:49;;;;;;;3.72;1.10;;;;;;;;;;5021434;28;20483;-72
2022/06/02 11:18:24;;;;;;;5.65;1.50;;;;;;;;;;5021057;28;20041;-72
2022/06/02 11:21:09;;;;;;;5.47;1.65;;;;;;;;;;5017925;28;20033;-72
2022/06/02 11:24:05;;;;;;;7.63;1.48;;;;;;;;;;5022883;28;20030;-72
2022/06/02 11:26:37;;;;;;;3.08;1.15;;;;;;;;;;5034121;28;20071;-72
2022/06/02 11:29:02;;;;;;;;;;;;;;;;;;5020112;28;20503;-72
2022/06/02 11:31:31;;;;;;;3.72;0.90;;;;;;;;;;5015991;28;19923;-72
2022/06/02 11:34:05;;;;;;;2.55;0.68;;;;;;;;;;5023868;28;20049;-72
2022/06/02 11:36:33;;;;;;;1.88;0.82;;;;;;;;;;5016800;28;20028;-72
2022/06/02 11:39:21;;;;;;;6.55;1.30;;;;;;;;;;5016616;28;20049;-72
2022/06/02 11:41:50;;;;;;;4.13;1.30;;;;;;;;;;5017351;28;20025;-72
2022/06/02 11:44:22;;;;;;;6.07;1.25;;;;;;;;;;5018905;28;20091;-72
2022/06/02 11:47:06;;;;;;;5.22;1.10;;;;;;;;;;5021543;28;20025;-72
2022/06/02 11:49:48;;;;;;;4.05;1.10;;;;;;;;;;5021520;28;20042;-72
2022/06/02 11:52:26;;;;;;;5.22;0.70;;;;;;;;;;5018955;28;20033;-72
2022/06/02 11:55:11;;;;;;;10.75;1.45;;;;;;;;;;5019662;28;20062;-72
2022/06/02 11:57:37;;;;;;;9.70;1.00;;;;;;;;;;5018513;28;20072;-72
2022/06/02 12:00:16;;;;;;;3.40;1.08;;;;;;;;;;5017283;28;20409;-72
2022/06/02 12:03:08;;;;;;;5.72;1.30;;;;;;;;;;5022734;28;20030;-71
2022/06/02 12:05:37;;;;;;;3.70;0.95;;;;;;;;;;5015464;28;20819;-72
2022/06/02 12:08:36;;;;;;;3.58;0.73;;;;;;;;;;5014772;28;20527;-72
2022/06/02 12:11:20;;;;;;;2.22;0.80;;;;;;;;;;5017221;28;20057;-72
2022/06/02 12:13:46;;;;;;;5.68;0.77;;;;;;;;;;5013044;28;20030;-72
2022/06/02 12:16:21;;;;;;;2.08;0.70;;;;;;;;;;5021870;28;20033;-72
2022/06/02 12:18:52;;;;;;;7.47;0.70;;;;;;;;;;5021744;28;20688;-72
2022/06/02 12:21:31;;;;;;;9.43;1.00;;;;;;;;;;5022706;28;20075;-72
2022/06/02 12:23:57;;;;;;;1.80;0.70;;;;;;;;;;5023539;28;20071;-72
2022/06/02 12:26:38;;;;;;;3.38;0.75;;;;;;;;;;5019023;28;20625;-72
2022/06/02 12:29:17;;;;;;;4.30;0.70;;;;;;;;;;5026201;28;20057;-71
2022/06/02 12:32:02;;;;;;;2.70;0.90;;;;;;;;;;5021773;28;20025;-72
2022/06/02 12:34:47;;;;;;;3.22;0.85;;;;;;;;;;5022810;28;20425;-72
2022/06/02 12:37:16;;;;;;;2.17;0.90;;;;;;;;;;5022324;28;20029;-72
2022/06/02 12:40:02;;;;;;;5.78;0.60;;;;;;;;;;5023349;28;20046;-72
2022/06/02 12:42:28;;;;;;;5.55;0.82;;;;;;;;;;5023756;28;20026;-72
2022/06/02 12:45:02;;;;;;;6.63;0.65;;;;;;;;;;5023966;28;20034;-72
2022/06/02 12:47:36;;;;;;;3.70;0.70;;;;;;;;;;5020944;28;20113;-71
2022/06/02 12:50:02;;;;;;;2.08;0.63;;;;;;;;;;5016647;28;20052;-71
2022/06/02 12:52:28;;;;;;;3.50;0.73;;;;;;;;;;5025035;28;20105;-71
2022/06/02 12:54:57;;;;;;;2.05;0.50;;;;;;;;;;5022643;28;20108;-72
2022/06/02 12:57:39;;;;;;;3.58;0.60;;;;;;;;;;5019520;28;20030;-71
2022/06/02 13:00:24;;;;;;;3.42;0.80;;;;;;;;;;5019474;28;20029;-72
2022/06/02 13:03:19;;;;;;;10.07;0.77;;;;;;;;;;5022415;28;20060;-72
2022/06/02 13:05:57;;;;;;;5.20;1.10;;;;;;;;;;5018806;28;20124;-71
2022/06/02 13:08:39;;;;;;;2.85;0.80;;;;;;;;;;5019666;28;20032;-71
2022/06/02 13:11:14;;;;;;;1.75;0.63;;;;;;;;;;5022432;28;20556;-72
2022/06/02 13:13:52;;;;;;;4.22;0.68;;;;;;;;;;5019960;28;20519;-71
2022/06/02 13:16:22;;;;;;;3.67;0.80;;;;;;;;;;5019140;28;20036;-72
2022/06/02 13:19:03;;;;;;;2.47;0.55;;;;;;;;;;5022663;28;20063;-71
2022/06/02 13:21:44;;;;;;;7.63;0.70;;;;;;;;;;5020514;28;20030;-72
2022/06/02 13:24:20;;;;;;;2.75;0.80;;;;;;;;;;5018144;28;20048;-72
2022/06/02 13:26:58;;;;;;;4.35;0.80;;;;;;;;;;5021138;28;20496;-72
2022/06/02 13:29:27;;;;;;;4.22;0.82;;;;;;;;;;5021585;28;20049;-71
2022/06/02 13:31:53;;;;;;;6.78;0.90;;;;;;;;;;5022866;28;20052;-72
2022/06/02 13:34:25;;;;;;;4.63;0.88;;;;;;;;;;5024489;28;20760;-72
2022/06/02 13:37:01;;;;;;;6.60;1.00;;;;;;;;;;5017975;28;20036;-72
2022/06/02 13:39:27;;;;;;;4.50;0.70;;;;;;;;;;5022585;28;20073;-72
2022/06/02 13:42:09;;;;;;;3.67;0.85;;;;;;;;;;5021077;28;20034;-72
2022/06/02 13:44:49;;;;;;;2.42;0.70;;;;;;;;;;5018493;28;20120;-71
2022/06/02 13:47:34;;;;;;;4.22;0.65;;;;;;;;;;5019212;28;20037;-72
2022/06/02 13:50:19;;;;;;;6.35;1.00;;;;;;;;;;5019246;28;20059;-71
2022/06/02 13:52:45;;;;;;;5.45;0.90;;;;;;;;;;5022106;28;20033;-71
2022/06/02 13:58:02;;;;;;;5.95;0.93;;;;;;;;;;5013508;28;20114;-72
2022/06/02 14:00:36;;;;;;;3.95;1.00;;;;;;;;;;5016453;28;20025;-72
2022/06/02 14:03:05;;;;;;;3.28;0.90;;;;;;;;;;5014757;28;20075;-72
2022/06/02 14:05:34;;;;;;;6.38;1.10;;;;;;;;;;5021105;28;20040;-72
2022/06/02 14:08:06;;;;;;;3.92;0.63;;;;;;;;;;5018055;28;20034;-71
2022/06/02 14:10:50;;;;;;;2.60;0.80;;;;;;;;;;5023105;28;20094;-72
2022/06/02 14:13:35;;;;;;;4.78;1.00;;;;;;;;;;5019213;28;20044;-72
2022/06/02 14:16:15;;;;;;;6.20;1.17;;;;;;;;;;5024667;28;20124;-72
2022/06/02 14:18:44;;;;;;;3.80;0.85;;;;;;;;;;5019746;28;20030;-72
2022/06/02 14:21:26;;;;;;;5.57;0.90;;;;;;;;;;5021088;28;20478;-72
2022/06/02 14:24:01;;;;;;;4.13;0.90;;;;;;;;;;5020476;28;20030;-72
2022/06/02 14:26:27;;;;;;;3.83;0.98;;;;;;;;;;5020080;28;20029;-72
2022/06/02 14:29:06;;;;;;;3.55;0.75;;;;;;;;;;5015570;28;20403;-72
2022/06/02 14:31:42;;;;;;;3.30;0.63;;;;;;;;;;5021312;28;20040;-72
2022/06/02 14:34:08;;;;;;;6.00;0.90;;;;;;;;;;5019447;28;20026;-72
2022/06/02 14:36:37;;;;;;;4.05;1.00;;;;;;;;;;5021012;28;20618;-72
2022/06/02 14:39:21;;;;;;;4.00;1.05;;;;;;;;;;5021472;28;20046;-72
2022/06/02 14:42:14;;;;;;;4.43;1.30;;;;;;;;;;5023598;28;20040;-72
2022/06/02 14:44:58;;;;;;;6.22;1.15;;;;;;;;;;5024794;28;20133;-71
2022/06/02 14:47:31;;;;;;;5.18;1.10;;;;;;;;;;5020548;28;20048;-72
2022/06/02 14:50:15;;;;;;;6.72;1.10;;;;;;;;;;5021091;28;20025;-71
2022/06/02 14:52:41;;;;;;;3.58;0.90;;;;;;;;;;5020848;28;20041;-72
2022/06/02 14:55:10;;;;;;;7.63;1.42;;;;;;;;;;5018942;28;20390;-72
2022/06/02 14:57:55;;;;;;;2.50;0.70;;;;;;;;;;5020679;28;20045;-72
2022/06/02 15:00:26;;;;;;;3.72;0.77;;;;;;;;;;5020326;28;20497;-72
2022/06/02 15:03:04;;;;;;;5.57;1.17;;;;;;;;;;5017042;28;20036;-72
2022/06/02 15:05:33;;;;;;;5.55;0.90;;;;;;;;;;5020406;28;20078;-72
2022/06/02 15:08:11;;;;;;;3.60;1.20;;;;;;;;;;5021246;28;20482;-72
2022/06/02 15:10:52;;;;;;;5.35;1.00;;;;;;;;;;5018715;28;20025;-72
2022/06/02 15:13:22;;;;;;;5.95;1.65;;;;;;;;;;5015029;28;20396;-72
2022/06/02 15:15:54;;;;;;;4.53;1.00;;;;;;;;;;5016869;28;20494;-72
2022/06/02 15:18:23;;;;;;;2.42;0.82;;;;;;;;;;5017963;28;20042;-72
2022/06/02 15:21:08;;;;;;;3.47;1.10;;;;;;;;;;5016092;28;20039;-72
2022/06/02 15:23:43;;;;;;;5.20;1.35;;;;;;;;;;5013449;28;20042;-72
2022/06/02 15:26:38;;;;;;;4.70;1.00;;;;;;;;;;5017051;28;20037;-71
2022/06/02 15:29:22;;;;;;;3.97;1.15;;;;;;;;;;5015599;28;20071;-72
2022/06/02 15:32:01;;;;;;;2.58;0.70;;;;;;;;;;5020558;28;20105;-72
2022/06/02 15:34:27;;;;;;;2.92;0.90;;;;;;;;;;5020755;28;20036;-72
2022/06/02 15:36:59;;;;;;;7.03;1.15;;;;;;;;;;5023818;28;20034;-71
2022/06/02 15:39:43;;;;;;;4.15;1.10;;;;;;;;;;5020731;28;20145;-71
2022/06/02 15:42:21;;;;;;;5.60;1.05;;;;;;;;;;5018670;28;20065;-71
2022/06/02 15:45:06;;;;;;;5.85;1.33;;;;;;;;;;5018133;28;20048;-71